Time;durP1;ratioP1;P1;durP2;ratioP2;P2;SDS_P1;SDS_P2;PMS_P1;PMS_P2;Temp;Humidity;BMP_temperature;BMP_pressure;BME280_temperature;BME280_humidity;BME280_pressure;Samples;Min_cycle;Max_cycle;Signal;HPM_P1;HPM_P2
2023/05/11 00:00:30;;;;;;;0.50;0.50;;;8.50;99.90;;;;;;2047846;28;20230;-70
2023/05/11 00:01:33;;;;;;;0.60;0.60;;;8.50;99.90;;;;;;2048834;28;20322;-69
2023/05/11 00:02:34;;;;;;;0.70;0.70;;;8.60;99.90;;;;;;2047786;28;20239;-70
2023/05/11 00:03:35;;;;;;;0.50;0.50;;;8.70;99.90;;;;;;2045674;28;20219;-70
2023/05/11 00:04:37;;;;;;;0.40;0.40;;;8.80;99.90;;;;;;2048077;28;20306;-70
2023/05/11 00:05:38;;;;;;;0.70;0.70;;;8.60;99.90;;;;;;2054918;28;20218;-70
2023/05/11 00:06:39;;;;;;;0.77;0.70;;;8.80;99.90;;;;;;2040021;29;20216;-70
2023/05/11 00:07:40;;;;;;;0.50;0.50;;;;;;;;;;2039229;28;20732;-70
2023/05/11 00:08:41;;;;;;;0.65;0.65;;;8.70;99.90;;;;;;2056127;28;20230;-70
2023/05/11 00:09:42;;;;;;;1.20;1.17;;;8.80;99.90;;;;;;2053671;28;20317;-70
2023/05/11 00:10:47;;;;;;;0.43;0.43;;;8.70;99.90;;;;;;2053706;28;20696;-70
2023/05/11 00:11:48;;;;;;;0.68;0.65;;;9.20;99.90;;;;;;2045712;28;20223;-72
2023/05/11 00:12:48;;;;;;;0.60;0.60;;;8.80;99.90;;;;;;2047152;28;20230;-70
2023/05/11 00:13:49;;;;;;;0.60;0.60;;;8.90;99.90;;;;;;2055793;28;20222;-70
2023/05/11 00:14:50;;;;;;;0.70;0.50;;;9.00;99.90;;;;;;2055762;28;20243;-69
2023/05/11 00:15:51;;;;;;;0.50;0.50;;;8.90;99.90;;;;;;2047802;28;20732;-70
2023/05/11 00:16:51;;;;;;;0.50;0.50;;;8.90;99.90;;;;;;2047795;28;20234;-70
2023/05/11 00:17:52;;;;;;;1.40;0.57;;;9.00;99.90;;;;;;2045550;28;20310;-72
2023/05/11 00:18:53;;;;;;;0.50;0.50;;;9.00;99.90;;;;;;2047065;28;20702;-71
2023/05/11 00:19:54;;;;;;;0.60;0.50;;;9.10;99.90;;;;;;2038637;29;20325;-74
2023/05/11 00:20:55;;;;;;;0.50;0.50;;;9.50;99.90;;;;;;2032430;29;20193;-72
2023/05/11 00:21:58;;;;;;;0.60;0.60;;;9.00;99.90;;;;;;2046275;28;20179;-72
2023/05/11 00:22:59;;;;;;;1.08;0.52;;;9.50;99.90;;;;;;2049773;28;20192;-72
2023/05/11 00:24:00;;;;;;;0.50;0.50;;;8.80;99.90;;;;;;2047723;28;20287;-72
2023/05/11 00:25:01;;;;;;;0.40;0.40;;;9.10;99.90;;;;;;2055707;28;20257;-72
2023/05/11 00:26:02;;;;;;;0.43;0.43;;;9.20;99.90;;;;;;2054913;28;20638;-72
2023/05/11 00:27:03;;;;;;;0.95;0.60;;;9.10;99.90;;;;;;2047604;28;20188;-71
2023/05/11 00:28:04;;;;;;;0.67;0.63;;;9.10;99.90;;;;;;2052728;28;20255;-71
2023/05/11 00:29:05;;;;;;;0.50;0.50;;;8.70;99.90;;;;;;2048302;28;20203;-74
2023/05/11 00:30:09;;;;;;;0.50;0.50;;;9.10;99.90;;;;;;2048550;28;20196;-72
2023/05/11 00:31:10;;;;;;;1.90;0.60;;;9.00;99.90;;;;;;2054364;28;20201;-71
2023/05/11 00:32:11;;;;;;;0.50;0.50;;;9.10;99.90;;;;;;2056893;28;20928;-71
2023/05/11 00:33:13;;;;;;;0.50;0.50;;;9.30;99.90;;;;;;2045548;28;20250;-71
2023/05/11 00:34:15;;;;;;;0.63;0.63;;;9.20;99.90;;;;;;2048240;28;20234;-71
2023/05/11 00:35:16;;;;;;;0.50;0.50;;;9.20;99.90;;;;;;2033365;29;20255;-71
2023/05/11 00:36:16;;;;;;;0.40;0.40;;;9.20;99.90;;;;;;2029191;29;20723;-72
2023/05/11 00:37:17;;;;;;;1.00;0.70;;;9.20;99.90;;;;;;2043956;28;20259;-70
2023/05/11 00:38:18;;;;;;;0.50;0.50;;;9.20;99.90;;;;;;2057566;28;20231;-71
2023/05/11 00:39:20;;;;;;;0.50;0.50;;;9.10;99.90;;;;;;2047534;28;20709;-71
2023/05/11 00:40:22;;;;;;;0.50;0.50;;;9.10;99.90;;;;;;2049865;28;20239;-71
2023/05/11 00:41:23;;;;;;;0.63;0.57;;;9.10;99.90;;;;;;2048140;28;20287;-72
2023/05/11 00:42:23;;;;;;;0.50;0.50;;;9.20;99.90;;;;;;2046386;28;20278;-72
2023/05/11 00:43:24;;;;;;;0.60;0.60;;;8.80;99.90;;;;;;2038475;29;20245;-71
2023/05/11 00:44:25;;;;;;;0.93;0.60;;;8.80;99.90;;;;;;2039837;28;20235;-71
2023/05/11 00:45:27;;;;;;;0.60;0.50;;;8.80;99.90;;;;;;2047711;28;20644;-71
2023/05/11 00:46:28;;;;;;;0.50;0.50;;;8.80;99.90;;;;;;2043399;28;20713;-71
2023/05/11 00:47:29;;;;;;;1.33;0.60;;;9.00;99.90;;;;;;2047465;28;20264;-71
2023/05/11 00:48:31;;;;;;;0.70;0.57;;;;;;;;;;2039968;29;20227;-70
2023/05/11 00:49:33;;;;;;;0.60;0.60;;;8.60;99.90;;;;;;2046979;28;20235;-69
2023/05/11 00:50:35;;;;;;;0.52;0.50;;;8.70;99.90;;;;;;2046307;28;20265;-70
2023/05/11 00:51:36;;;;;;;2.92;0.85;;;8.70;99.90;;;;;;2039545;29;20593;-70
2023/05/11 00:52:37;;;;;;;0.50;0.50;;;9.20;99.90;;;;;;2039561;29;20239;-70
2023/05/11 00:53:37;;;;;;;0.50;0.50;;;8.70;99.90;;;;;;2047548;28;20653;-70
2023/05/11 00:54:39;;;;;;;1.58;0.80;;;8.70;99.90;;;;;;2047598;28;20769;-70
2023/05/11 00:55:40;;;;;;;0.50;0.50;;;8.80;99.90;;;;;;2046070;28;20395;-70
2023/05/11 00:56:41;;;;;;;0.60;0.60;;;8.60;99.90;;;;;;2047672;28;20231;-70
2023/05/11 00:57:43;;;;;;;0.90;0.70;;;8.60;99.90;;;;;;2043235;28;20228;-70
2023/05/11 00:58:45;;;;;;;0.60;0.60;;;8.50;99.90;;;;;;2051467;28;20230;-70
2023/05/11 00:59:48;;;;;;;0.88;0.60;;;8.60;99.90;;;;;;2047783;28;20226;-70
2023/05/11 01:00:49;;;;;;;0.70;0.70;;;8.90;99.90;;;;;;2047025;28;20663;-70
2023/05/11 01:01:50;;;;;;;0.97;0.77;;;8.80;99.90;;;;;;2055453;28;20254;-70
2023/05/11 01:02:52;;;;;;;0.60;0.60;;;8.50;99.90;;;;;;2055292;28;20229;-70
2023/05/11 01:03:53;;;;;;;0.98;0.60;;;8.60;99.90;;;;;;2055416;28;20468;-70
2023/05/11 01:04:53;;;;;;;0.40;0.40;;;10.00;99.90;;;;;;2053834;28;20238;-71
2023/05/11 01:06:31;;;;;;;0.83;0.70;;;8.50;99.90;;;;;;2056046;28;20866;-72
2023/05/11 01:07:47;;;;;;;0.88;0.70;;;8.50;99.90;;;;;;2050494;28;20234;-70
2023/05/11 01:08:58;;;;;;;0.50;0.50;;;8.80;99.90;;;;;;2041635;29;20262;-70
2023/05/11 01:10:24;;;;;;;2.53;0.70;;;8.80;99.90;;;;;;2053639;28;20248;-70
2023/05/11 01:11:56;;;;;;;0.50;0.50;;;8.60;99.90;;;;;;2057169;28;20237;-70
2023/05/11 01:13:31;;;;;;;0.90;0.80;;;8.30;99.90;;;;;;2034412;28;20725;-71
2023/05/11 01:14:45;;;;;;;0.57;0.52;;;8.80;99.90;;;;;;2008315;29;20400;-70
2023/05/11 01:15:55;;;;;;;0.75;0.60;;;8.80;99.90;;;;;;2049100;28;20215;-72
2023/05/11 01:17:06;;;;;;;0.60;0.60;;;8.90;99.90;;;;;;2053992;28;20607;-72
2023/05/11 01:18:39;;;;;;;1.20;0.82;;;8.70;99.90;;;;;;2054712;28;20186;-70
2023/05/11 01:19:55;;;;;;;0.57;0.57;;;9.00;99.90;;;;;;2043946;28;20702;-70
2023/05/11 01:21:00;;;;;;;1.85;0.70;;;9.40;99.90;;;;;;2032953;28;20259;-71
2023/05/11 01:22:29;;;;;;;0.82;0.63;;;9.00;99.90;;;;;;2038136;29;20196;-70
2023/05/11 01:24:06;;;;;;;0.60;0.60;;;9.30;99.90;;;;;;2044156;28;20227;-70
2023/05/11 01:25:23;;;;;;;0.70;0.70;;;8.90;99.90;;;;;;2048113;28;20229;-70
2023/05/11 01:26:54;;;;;;;0.70;0.70;;;9.00;99.90;;;;;;2049900;28;20264;-70
2023/05/11 01:28:09;;;;;;;0.60;0.60;;;9.20;99.90;;;;;;2049721;28;20270;-71
2023/05/11 01:29:36;;;;;;;0.60;0.60;;;8.80;99.90;;;;;;2036326;28;20190;-70
2023/05/11 01:30:50;;;;;;;3.25;0.73;;;9.00;99.90;;;;;;2041757;28;20245;-70
2023/05/11 01:31:55;;;;;;;2.45;0.70;;;9.60;99.90;;;;;;2055151;28;20217;-70
2023/05/11 01:33:08;;;;;;;0.90;0.70;;;9.00;99.90;;;;;;2053281;28;20724;-71
2023/05/11 01:34:24;;;;;;;0.50;0.50;;;8.90;99.90;;;;;;2032931;28;20690;-70
2023/05/11 01:35:28;;;;;;;0.98;0.80;;;9.00;99.90;;;;;;2036146;29;20256;-70
2023/05/11 01:36:34;;;;;;;0.70;0.70;;;9.10;99.90;;;;;;2050822;28;20240;-70
2023/05/11 01:37:36;;;;;;;0.63;0.63;;;8.90;99.90;;;;;;2045889;28;20231;-70
2023/05/11 01:38:41;;;;;;;1.88;0.70;;;8.60;99.90;;;;;;2043419;28;20688;-70
2023/05/11 01:39:56;;;;;;;0.70;0.70;;;8.70;99.90;;;;;;2053656;28;20230;-71
2023/05/11 01:40:59;;;;;;;0.60;0.60;;;8.80;99.90;;;;;;2049495;28;20603;-71
2023/05/11 01:42:08;;;;;;;1.75;0.70;;;8.90;99.90;;;;;;2053418;28;20580;-70
2023/05/11 01:43:13;;;;;;;0.80;0.70;;;9.10;99.90;;;;;;2042414;28;20275;-73
2023/05/11 01:44:15;;;;;;;0.85;0.73;;;8.90;99.90;;;;;;2039499;29;20250;-70
2023/05/11 01:45:18;;;;;;;1.38;0.80;;;9.10;99.90;;;;;;2036317;29;20240;-70
2023/05/11 01:46:22;;;;;;;0.60;0.60;;;9.10;99.90;;;;;;2038684;29;20239;-70
2023/05/11 01:47:25;;;;;;;1.00;0.70;;;8.90;99.90;;;;;;2031487;29;20291;-70
2023/05/11 01:48:30;;;;;;;0.70;0.70;;;9.20;99.90;;;;;;2043896;28;20239;-70
2023/05/11 01:49:39;;;;;;;1.23;0.90;;;9.40;99.90;;;;;;2047711;28;20231;-72
2023/05/11 01:50:42;;;;;;;1.17;0.70;;;9.00;99.90;;;;;;2053980;28;20234;-72
2023/05/11 01:51:44;;;;;;;0.90;0.80;;;9.00;99.90;;;;;;2051795;28;20230;-72
2023/05/11 01:52:47;;;;;;;1.38;0.80;;;9.20;99.90;;;;;;2055541;28;20273;-71
2023/05/11 01:53:50;;;;;;;1.27;0.70;;;9.20;99.90;;;;;;2042673;28;20242;-70
2023/05/11 01:54:54;;;;;;;0.70;0.68;;;9.20;99.90;;;;;;2044179;28;20231;-71
2023/05/11 01:55:57;;;;;;;0.82;0.70;;;10.60;99.90;;;;;;2053970;28;20298;-70
2023/05/11 01:56:59;;;;;;;1.05;0.70;;;9.20;99.90;;;;;;2055088;28;20186;-71
2023/05/11 01:58:03;;;;;;;1.77;0.70;;;9.20;99.90;;;;;;2046711;28;20234;-71
2023/05/11 01:59:05;;;;;;;1.23;0.80;;;9.20;99.90;;;;;;2047110;28;20230;-70
2023/05/11 02:00:08;;;;;;;3.63;0.90;;;9.40;99.90;;;;;;2062099;28;20185;-71
2023/05/11 02:01:10;;;;;;;0.95;0.70;;;9.20;99.90;;;;;;2060076;28;20202;-71
2023/05/11 02:02:12;;;;;;;0.85;0.75;;;8.80;99.90;;;;;;2062564;28;20234;-71
2023/05/11 02:03:15;;;;;;;1.30;0.73;;;9.10;99.90;;;;;;2046911;28;20235;-70
2023/05/11 02:04:19;;;;;;;1.25;0.80;;;8.80;99.90;;;;;;2047426;28;20302;-70
2023/05/11 02:05:22;;;;;;;1.95;0.60;;;9.30;99.90;;;;;;2055461;28;20265;-71
2023/05/11 02:06:25;;;;;;;0.80;0.63;;;8.80;99.90;;;;;;2047256;28;20837;-71
2023/05/11 02:07:29;;;;;;;1.98;0.82;;;9.00;99.90;;;;;;2038417;28;20232;-71
2023/05/11 02:08:31;;;;;;;0.75;0.75;;;9.10;99.90;;;;;;2045738;28;20691;-70
2023/05/11 02:09:33;;;;;;;1.23;0.80;;;9.40;99.90;;;;;;2052731;28;20765;-71
2023/05/11 02:10:35;;;;;;;0.82;0.70;;;9.20;99.90;;;;;;2055228;28;20272;-71
2023/05/11 02:11:37;;;;;;;0.80;0.80;;;9.20;99.90;;;;;;2038680;28;20215;-70
2023/05/11 02:12:40;;;;;;;1.48;0.73;;;8.70;99.90;;;;;;2039204;29;20227;-70
2023/05/11 02:13:46;;;;;;;0.80;0.80;;;9.10;99.90;;;;;;2049942;28;20300;-71
2023/05/11 02:14:48;;;;;;;0.70;0.70;;;8.80;99.90;;;;;;2047874;28;20245;-71
2023/05/11 02:15:52;;;;;;;2.03;0.70;;;9.10;99.90;;;;;;2046748;28;20224;-71
2023/05/11 02:16:55;;;;;;;1.38;0.73;;;9.20;99.90;;;;;;2039717;29;20231;-70
2023/05/11 02:17:56;;;;;;;0.95;0.80;;;9.20;99.90;;;;;;2046063;28;20232;-70
2023/05/11 02:18:58;;;;;;;1.30;0.80;;;9.30;99.90;;;;;;2038763;29;20270;-71
2023/05/11 02:20:02;;;;;;;0.85;0.80;;;8.90;99.90;;;;;;2029868;29;20195;-70
2023/05/11 02:21:04;;;;;;;0.98;0.85;;;9.50;99.90;;;;;;2036339;29;20188;-70
2023/05/11 02:22:07;;;;;;;1.13;0.90;;;9.20;99.90;;;;;;2026277;29;20653;-70
2023/05/11 02:23:09;;;;;;;1.38;0.80;;;9.50;99.90;;;;;;2037720;29;20187;-70
2023/05/11 02:24:10;;;;;;;1.65;1.42;;;9.00;99.90;;;;;;2038290;29;20188;-70
2023/05/11 02:25:12;;;;;;;0.70;0.70;;;9.80;99.90;;;;;;2031427;29;20212;-70
2023/05/11 02:26:15;;;;;;;1.42;0.80;;;9.30;99.90;;;;;;2039314;28;20676;-70
2023/05/11 02:27:16;;;;;;;1.35;1.25;;;9.00;99.90;;;;;;2049805;28;20700;-70
2023/05/11 02:28:18;;;;;;;0.83;0.80;;;9.60;99.90;;;;;;2046783;28;20294;-70
2023/05/11 02:29:19;;;;;;;2.60;0.80;;;9.80;99.90;;;;;;2046724;28;20781;-70
2023/05/11 02:30:20;;;;;;;0.90;0.90;;;;;;;;;;2050460;28;20241;-70
2023/05/11 02:31:27;;;;;;;1.80;0.82;;;9.30;99.90;;;;;;2046881;28;20230;-70
2023/05/11 02:32:32;;;;;;;1.00;0.90;;;9.20;99.90;;;;;;2046594;28;20729;-70
2023/05/11 02:33:35;;;;;;;1.10;0.90;;;9.50;99.90;;;;;;2041257;28;20235;-70
2023/05/11 02:34:42;;;;;;;1.27;0.90;;;9.10;99.90;;;;;;2038153;29;20227;-70
2023/05/11 02:35:45;;;;;;;0.80;0.80;;;9.30;99.90;;;;;;2039194;28;20239;-70
2023/05/11 02:36:48;;;;;;;1.10;0.98;;;9.60;99.90;;;;;;2054964;28;20225;-70
2023/05/11 02:37:50;;;;;;;2.10;0.88;;;9.70;99.90;;;;;;2047071;28;20631;-70
2023/05/11 02:38:58;;;;;;;1.00;0.90;;;9.30;99.90;;;;;;2039244;29;20231;-70
2023/05/11 02:40:05;;;;;;;1.17;1.02;;;9.70;99.90;;;;;;2037340;29;20227;-70
2023/05/11 02:41:11;;;;;;;0.70;0.70;;;9.70;99.90;;;;;;2041357;28;20521;-70
2023/05/11 02:42:18;;;;;;;0.80;0.80;;;9.50;99.90;;;;;;2055160;28;20201;-71
2023/05/11 02:43:28;;;;;;;1.23;0.90;;;9.60;99.90;;;;;;2047767;28;20732;-70
2023/05/11 02:44:34;;;;;;;2.22;0.90;;;9.60;99.90;;;;;;2043764;28;20318;-70
2023/05/11 02:45:38;;;;;;;1.33;0.80;;;9.70;99.90;;;;;;2045035;29;20227;-71
2023/05/11 02:46:40;;;;;;;2.13;1.00;;;9.40;99.90;;;;;;2034199;29;20262;-70
2023/05/11 02:47:47;;;;;;;1.10;0.80;;;9.50;99.90;;;;;;2024225;29;20219;-70
2023/05/11 02:48:53;;;;;;;1.80;1.10;;;9.70;99.90;;;;;;2029996;29;20240;-70
2023/05/11 02:49:56;;;;;;;1.98;1.10;;;9.80;99.90;;;;;;2045617;28;20224;-71
2023/05/11 02:51:00;;;;;;;1.23;0.77;;;9.80;99.90;;;;;;2044648;28;20270;-70
2023/05/11 02:52:02;;;;;;;1.00;0.85;;;9.90;99.90;;;;;;2039338;29;20196;-70
2023/05/11 02:53:10;;;;;;;1.10;1.00;;;9.50;99.90;;;;;;2039463;29;20271;-70
2023/05/11 02:54:13;;;;;;;1.50;0.93;;;9.50;99.90;;;;;;2042286;28;20265;-71
2023/05/11 02:55:16;;;;;;;0.93;0.90;;;9.40;99.90;;;;;;2038849;29;20746;-70
2023/05/11 02:56:17;;;;;;;1.27;1.00;;;9.20;99.90;;;;;;2034190;29;20240;-70
2023/05/11 02:57:19;;;;;;;2.35;0.80;;;;;;;;;;2050082;28;20293;-70
2023/05/11 02:58:20;;;;;;;1.30;1.00;;;8.90;99.90;;;;;;2049227;28;20228;-70
2023/05/11 02:59:23;;;;;;;0.90;0.80;;;8.80;99.90;;;;;;2032743;29;20237;-70
2023/05/11 03:00:24;;;;;;;1.38;1.27;;;8.90;99.90;;;;;;2042798;29;20332;-70
2023/05/11 03:01:26;;;;;;;2.30;0.90;;;9.70;99.90;;;;;;2040406;28;20263;-70
2023/05/11 03:02:27;;;;;;;1.90;1.23;;;9.40;99.90;;;;;;2034936;28;20239;-70
2023/05/11 03:03:27;;;;;;;0.90;0.90;;;9.40;99.90;;;;;;2047521;28;20316;-70
2023/05/11 03:04:28;;;;;;;3.33;1.20;;;9.50;99.90;;;;;;2047070;28;20238;-70
2023/05/11 03:05:29;;;;;;;1.00;0.90;;;9.50;99.90;;;;;;2046676;28;20240;-70
2023/05/11 03:06:32;;;;;;;1.20;1.00;;;9.10;99.90;;;;;;2046790;28;20228;-70
2023/05/11 03:07:33;;;;;;;1.20;0.90;;;9.30;99.90;;;;;;2047222;28;20242;-70
2023/05/11 03:08:34;;;;;;;1.15;1.05;;;9.50;99.90;;;;;;2038981;29;20231;-70
2023/05/11 03:09:37;;;;;;;1.60;1.10;;;9.50;99.90;;;;;;2046588;28;20235;-70
2023/05/11 03:10:39;;;;;;;2.00;1.45;;;9.10;99.90;;;;;;2057814;28;20301;-70
2023/05/11 03:11:40;;;;;;;2.08;1.20;;;;;;;;;;2050380;28;20250;-71
2023/05/11 03:12:42;;;;;;;2.70;1.40;;;9.30;99.90;;;;;;2050506;28;20270;-70
2023/05/11 03:13:44;;;;;;;3.08;1.40;;;9.10;99.90;;;;;;2057340;28;20284;-70
2023/05/11 03:14:46;;;;;;;1.38;1.20;;;9.20;99.90;;;;;;2056303;28;20281;-70
2023/05/11 03:15:48;;;;;;;2.78;1.20;;;9.30;99.90;;;;;;2052852;28;20229;-70
2023/05/11 03:16:49;;;;;;;2.20;1.50;;;9.40;99.90;;;;;;2049661;28;20255;-70
2023/05/11 03:17:52;;;;;;;1.42;1.27;;;9.60;99.90;;;;;;2038280;28;20699;-71
2023/05/11 03:18:54;;;;;;;1.80;1.15;;;9.50;99.90;;;;;;2048358;28;20224;-70
2023/05/11 03:19:57;;;;;;;1.63;1.30;;;9.50;99.90;;;;;;2039472;28;20303;-71
2023/05/11 03:21:00;;;;;;;1.73;1.00;;;9.50;99.90;;;;;;2048353;28;20199;-70
2023/05/11 03:22:02;;;;;;;2.20;0.88;;;9.50;99.90;;;;;;2046663;28;20187;-70
2023/05/11 03:23:05;;;;;;;1.70;1.10;;;9.30;99.90;;;;;;2047012;28;20207;-70
2023/05/11 03:24:10;;;;;;;1.67;1.13;;;9.30;99.90;;;;;;2040771;28;20189;-72
2023/05/11 03:25:12;;;;;;;2.97;1.33;;;;;;;;;;2049835;28;20192;-70
2023/05/11 03:26:16;;;;;;;1.23;1.13;;;9.30;99.90;;;;;;2051846;28;20277;-70
2023/05/11 03:27:19;;;;;;;1.83;1.10;;;9.30;99.90;;;;;;2052316;28;20239;-70
2023/05/11 03:28:23;;;;;;;1.65;1.00;;;9.20;99.90;;;;;;2045449;28;20244;-70
2023/05/11 03:29:25;;;;;;;1.00;0.90;;;8.80;99.90;;;;;;2031359;29;20248;-70
2023/05/11 03:30:28;;;;;;;2.13;0.90;;;9.20;99.90;;;;;;2031795;29;20245;-70
2023/05/11 03:31:29;;;;;;;2.47;0.90;;;;;;;;;;2040048;29;20282;-70
2023/05/11 03:32:30;;;;;;;4.65;1.23;;;9.10;99.90;;;;;;2053032;28;20242;-70
2023/05/11 03:33:31;;;;;;;1.73;1.00;;;9.30;99.90;;;;;;2047743;29;20273;-70
2023/05/11 03:34:32;;;;;;;1.20;1.05;;;9.70;99.90;;;;;;2050960;28;20263;-70
2023/05/11 03:35:35;;;;;;;2.17;1.00;;;9.20;99.90;;;;;;2048654;28;20318;-70
2023/05/11 03:36:39;;;;;;;1.55;1.10;;;9.70;99.90;;;;;;2048217;28;20282;-70
2023/05/11 03:37:41;;;;;;;2.33;1.10;;;9.40;99.90;;;;;;2040150;29;20614;-70
2023/05/11 03:38:46;;;;;;;2.58;1.10;;;9.10;99.90;;;;;;2048241;28;20274;-70
2023/05/11 03:39:51;;;;;;;1.30;1.20;;;9.10;99.90;;;;;;2045625;28;20269;-70
2023/05/11 03:40:54;;;;;;;2.15;1.40;;;9.00;99.90;;;;;;2041113;29;20297;-71
2023/05/11 03:41:58;;;;;;;1.50;1.17;;;9.30;99.90;;;;;;2045982;28;20307;-71
2023/05/11 03:43:02;;;;;;;1.52;1.30;;;9.60;99.90;;;;;;2054009;28;20222;-70
2023/05/11 03:44:06;;;;;;;3.08;1.30;;;9.30;99.90;;;;;;2038532;29;20283;-70
2023/05/11 03:45:09;;;;;;;1.20;1.10;;;9.40;99.90;;;;;;2040166;29;20198;-70
2023/05/11 03:46:12;;;;;;;1.20;1.10;;;9.20;99.90;;;;;;2044086;28;20196;-70
2023/05/11 03:47:15;;;;;;;1.02;0.93;;;9.00;99.90;;;;;;2037292;29;21290;-70
2023/05/11 03:48:17;;;;;;;4.55;1.30;;;9.30;99.90;;;;;;2046627;28;20235;-70
2023/05/11 03:49:18;;;;;;;1.30;1.20;;;9.40;99.90;;;;;;2045039;28;20302;-70
2023/05/11 03:50:20;;;;;;;3.50;1.20;;;9.40;99.90;;;;;;2047321;29;20234;-70
2023/05/11 03:51:22;;;;;;;1.58;1.00;;;9.20;99.90;;;;;;2047823;29;20227;-70
2023/05/11 03:52:23;;;;;;;1.30;1.10;;;9.20;99.90;;;;;;2046818;28;20375;-70
2023/05/11 03:53:24;;;;;;;3.42;1.30;;;9.60;99.90;;;;;;2046412;28;20291;-70
2023/05/11 03:54:25;;;;;;;1.20;1.10;;;9.00;99.90;;;;;;2047498;28;20231;-70
2023/05/11 03:55:26;;;;;;;1.23;1.13;;;;;;;;;;2044527;28;20278;-70
2023/05/11 03:56:28;;;;;;;2.08;0.90;;;;;;;;;;2037485;29;20236;-71
2023/05/11 03:57:29;;;;;;;0.80;0.80;;;9.10;99.90;;;;;;2044998;28;20694;-70
2023/05/11 03:58:30;;;;;;;1.35;1.10;;;9.30;99.90;;;;;;2049543;28;20227;-70
2023/05/11 03:59:31;;;;;;;1.88;1.23;;;9.00;99.90;;;;;;2051135;28;20232;-70
2023/05/11 04:00:32;;;;;;;1.30;1.10;;;9.30;99.90;;;;;;2047598;28;20687;-70
2023/05/11 04:01:33;;;;;;;1.40;1.00;;;8.60;99.90;;;;;;2039867;29;20739;-71
2023/05/11 04:02:35;;;;;;;1.42;1.13;;;;;;;;;;2052606;28;20282;-70
2023/05/11 04:03:48;;;;;;;1.95;1.50;;;8.90;99.90;;;;;;2047172;28;20239;-71
2023/05/11 04:04:51;;;;;;;4.82;1.30;;;8.90;99.90;;;;;;2047290;28;20286;-70
2023/05/11 04:05:51;;;;;;;3.25;1.58;;;9.00;99.90;;;;;;2056233;28;20223;-71
2023/05/11 04:06:52;;;;;;;1.60;1.13;;;;;;;;;;2054553;28;20218;-71
2023/05/11 04:07:54;;;;;;;3.03;1.30;;;;;;;;;;2054628;28;20257;-70
2023/05/11 04:08:55;;;;;;;1.50;1.40;;;9.00;99.90;;;;;;2056293;28;20190;-71
2023/05/11 04:09:55;;;;;;;1.57;1.30;;;8.60;99.90;;;;;;2056324;28;20190;-71
2023/05/11 04:10:57;;;;;;;1.60;1.50;;;;;;;;;;2063853;28;20191;-71
2023/05/11 04:11:57;;;;;;;1.20;1.10;;;8.70;99.90;;;;;;2055606;28;20709;-71
2023/05/11 04:12:59;;;;;;;2.10;1.40;;;;;;;;;;2055404;28;20215;-71
2023/05/11 04:14:01;;;;;;;3.22;1.40;;;8.30;99.90;;;;;;2063709;28;20210;-71
2023/05/11 04:15:03;;;;;;;1.90;1.10;;;9.10;99.90;;;;;;2055800;28;20250;-73
2023/05/11 04:16:05;;;;;;;1.23;1.00;;;;;;;;;;2047914;28;20218;-71
2023/05/11 04:17:06;;;;;;;1.48;1.10;;;;;;;;;;2047569;28;20318;-71
2023/05/11 04:18:07;;;;;;;1.17;1.05;;;;;;;;;;2054534;28;20723;-71
2023/05/11 04:19:08;;;;;;;1.85;1.10;;;8.60;99.90;;;;;;2056544;28;20194;-71
2023/05/11 04:20:09;;;;;;;1.60;1.00;;;8.90;99.90;;;;;;2056518;28;20198;-71
2023/05/11 04:21:09;;;;;;;1.20;1.00;;;8.40;99.90;;;;;;2060331;28;20197;-71
2023/05/11 04:22:11;;;;;;;1.73;1.10;;;8.50;99.90;;;;;;2059685;28;20234;-71
2023/05/11 04:23:11;;;;;;;1.00;0.90;;;8.60;99.90;;;;;;2056022;28;20200;-71
2023/05/11 04:24:12;;;;;;;1.20;1.10;;;8.50;99.90;;;;;;2056302;28;20577;-72
2023/05/11 04:25:13;;;;;;;1.43;0.90;;;8.80;99.90;;;;;;2047356;28;20329;-70
2023/05/11 04:26:14;;;;;;;4.50;1.10;;;8.30;99.90;;;;;;2037992;28;20237;-71
2023/05/11 04:27:15;;;;;;;2.60;1.30;;;;;;;;;;2039658;29;20749;-70
2023/05/11 04:28:16;;;;;;;1.05;0.93;;;9.00;99.90;;;;;;2043889;28;20292;-70
2023/05/11 04:29:17;;;;;;;0.87;0.87;;;8.40;99.90;;;;;;2056286;28;20732;-73
2023/05/11 04:30:19;;;;;;;3.97;1.00;;;9.00;99.90;;;;;;2056340;28;20621;-70
2023/05/11 04:31:20;;;;;;;1.10;1.00;;;9.00;99.90;;;;;;2056495;28;20365;-71
2023/05/11 04:32:22;;;;;;;2.17;1.00;;;9.00;99.90;;;;;;2051837;28;20243;-70
2023/05/11 04:33:23;;;;;;;2.63;0.98;;;9.10;99.90;;;;;;2027306;29;20236;-70
2023/05/11 04:34:24;;;;;;;0.70;0.68;;;9.30;99.90;;;;;;2035208;28;20314;-70
2023/05/11 04:35:25;;;;;;;1.80;1.10;;;9.20;99.90;;;;;;2057723;28;20235;-70
2023/05/11 04:36:27;;;;;;;0.63;0.60;;;8.60;99.90;;;;;;2056372;28;20250;-71
2023/05/11 04:37:28;;;;;;;1.05;0.95;;;9.10;99.90;;;;;;2061980;28;20332;-71
2023/05/11 04:38:29;;;;;;;1.80;1.00;;;9.00;99.90;;;;;;2060162;28;20616;-70
2023/05/11 04:39:30;;;;;;;1.70;0.93;;;8.70;99.90;;;;;;2055412;28;20231;-71
2023/05/11 04:40:31;;;;;;;1.17;1.00;;;9.00;99.90;;;;;;2047219;28;20235;-71
2023/05/11 04:41:32;;;;;;;0.90;0.90;;;9.00;99.90;;;;;;2046338;28;20638;-71
2023/05/11 04:42:32;;;;;;;3.07;0.87;;;9.50;99.90;;;;;;2047181;28;20246;-70
2023/05/11 04:43:34;;;;;;;0.70;0.70;;;9.30;99.90;;;;;;2037949;28;20322;-70
2023/05/11 04:44:35;;;;;;;0.98;0.90;;;9.10;99.90;;;;;;2042133;28;20239;-69
2023/05/11 04:45:36;;;;;;;0.98;0.90;;;9.20;99.90;;;;;;2039868;29;20761;-70
2023/05/11 04:46:37;;;;;;;1.80;0.90;;;9.20;99.90;;;;;;2054198;28;20292;-70
2023/05/11 04:47:39;;;;;;;1.70;0.98;;;9.20;99.90;;;;;;2054920;28;20596;-71
2023/05/11 04:48:40;;;;;;;1.05;0.95;;;8.90;99.90;;;;;;2051700;28;20800;-70
2023/05/11 04:49:43;;;;;;;1.23;1.10;;;9.30;99.90;;;;;;2056269;28;20261;-70
2023/05/11 04:50:43;;;;;;;2.65;1.40;;;9.10;99.90;;;;;;2054424;28;20250;-70
2023/05/11 04:51:45;;;;;;;1.13;1.03;;;9.60;99.90;;;;;;2046187;28;20261;-70
2023/05/11 04:52:45;;;;;;;1.50;1.40;;;9.50;99.90;;;;;;2063085;28;20786;-70
2023/05/11 04:53:46;;;;;;;1.73;1.40;;;;;;;;;;2039347;29;20240;-70
2023/05/11 04:54:47;;;;;;;3.92;1.20;;;;;;;;;;2047503;28;20250;-69
2023/05/11 04:55:48;;;;;;;1.33;0.95;;;8.90;99.90;;;;;;2047492;28;20255;-69
2023/05/11 04:56:49;;;;;;;2.47;1.20;;;9.10;99.90;;;;;;2051990;28;20611;-70
2023/05/11 04:57:50;;;;;;;1.53;1.20;;;8.70;99.90;;;;;;2056093;28;20254;-69
2023/05/11 04:58:52;;;;;;;1.53;1.20;;;9.20;99.90;;;;;;2055549;28;20226;-69
2023/05/11 04:59:53;;;;;;;3.10;1.20;;;;;;;;;;2047296;28;20231;-72
2023/05/11 05:00:54;;;;;;;1.95;1.20;;;8.90;99.90;;;;;;2047628;28;20247;-70
2023/05/11 05:01:54;;;;;;;1.40;1.10;;;9.40;99.90;;;;;;2038842;28;20203;-70
2023/05/11 05:02:55;;;;;;;1.90;1.30;;;9.00;99.90;;;;;;2046307;28;20215;-71
2023/05/11 05:03:56;;;;;;;2.23;1.00;;;9.00;99.90;;;;;;2055629;28;20254;-70
2023/05/11 05:04:57;;;;;;;1.80;1.33;;;9.10;99.90;;;;;;2053056;28;20205;-70
2023/05/11 05:05:57;;;;;;;1.53;1.20;;;9.20;99.90;;;;;;2057535;28;20201;-69
2023/05/11 05:06:58;;;;;;;4.70;2.23;;;9.30;99.90;;;;;;2047033;28;20186;-70
2023/05/11 05:07:59;;;;;;;2.73;1.80;;;9.40;99.90;;;;;;2055059;28;20187;-69
2023/05/11 05:09:02;;;;;;;5.63;2.22;;;9.40;99.90;;;;;;2056278;28;20175;-71
2023/05/11 05:10:07;;;;;;;1.33;1.02;;;9.30;99.90;;;;;;2054811;28;20187;-69
2023/05/11 05:11:09;;;;;;;1.60;1.10;;;9.40;99.90;;;;;;2048116;28;20204;-69
2023/05/11 05:12:10;;;;;;;1.67;1.13;;;9.60;99.90;;;;;;2046663;28;20184;-69
2023/05/11 05:13:11;;;;;;;1.60;1.07;;;9.40;99.90;;;;;;2041621;28;20216;-69
2023/05/11 05:14:11;;;;;;;2.60;1.50;;;9.10;99.90;;;;;;2055092;28;20183;-69
2023/05/11 05:15:12;;;;;;;1.70;1.53;;;9.40;99.90;;;;;;2055227;28;22326;-69
2023/05/11 05:16:13;;;;;;;2.53;1.38;;;9.00;99.90;;;;;;2051359;28;21111;-69
2023/05/11 05:17:14;;;;;;;2.10;1.13;;;9.00;99.90;;;;;;2043776;28;20330;-69
2023/05/11 05:18:15;;;;;;;1.30;1.00;;;9.20;99.90;;;;;;2054609;28;20732;-69
2023/05/11 05:19:15;;;;;;;2.23;1.60;;;9.10;99.90;;;;;;2055637;28;20250;-70
2023/05/11 05:20:16;;;;;;;1.80;1.40;;;9.20;99.90;;;;;;2055531;28;20226;-69
2023/05/11 05:21:17;;;;;;;1.80;1.30;;;9.10;99.90;;;;;;2054317;28;20238;-69
2023/05/11 05:22:17;;;;;;;1.10;1.00;;;9.60;99.90;;;;;;2037812;28;20733;-69
2023/05/11 05:23:18;;;;;;;1.87;1.30;;;9.20;99.90;;;;;;2037885;29;20275;-70
2023/05/11 05:24:19;;;;;;;1.23;1.13;;;9.40;99.90;;;;;;2045689;28;20243;-70
2023/05/11 05:25:22;;;;;;;1.43;1.10;;;9.30;99.90;;;;;;2063036;28;20230;-70
2023/05/11 05:26:22;;;;;;;2.15;1.02;;;9.30;99.90;;;;;;2054980;28;20709;-70
2023/05/11 05:27:23;;;;;;;1.87;1.10;;;9.50;99.90;;;;;;2055526;28;20227;-70
2023/05/11 05:28:24;;;;;;;3.83;1.60;;;10.00;99.90;;;;;;2055525;28;20243;-70
2023/05/11 05:29:24;;;;;;;2.60;1.10;;;10.00;99.90;;;;;;2051070;28;20264;-70
2023/05/11 05:30:26;;;;;;;1.40;1.07;;;;;;;;;;2046862;28;20263;-70
2023/05/11 05:31:26;;;;;;;1.73;1.20;;;9.80;99.90;;;;;;2039349;29;20385;-70
2023/05/11 05:32:27;;;;;;;1.25;1.15;;;10.10;99.90;;;;;;2038780;28;20240;-70
2023/05/11 05:33:28;;;;;;;1.30;1.10;;;9.80;99.90;;;;;;2046361;28;20228;-69
2023/05/11 05:34:29;;;;;;;2.22;1.33;;;9.80;99.90;;;;;;2030947;29;20315;-69
2023/05/11 05:35:30;;;;;;;3.63;1.27;;;9.90;99.90;;;;;;2036254;29;20287;-69
2023/05/11 05:36:31;;;;;;;1.92;1.20;;;10.10;99.90;;;;;;2047175;28;20227;-69